首页
METAR-TAF:

METAR-TAF

机场 :

哥伦比亚, 南卡罗来纳州, 美国

纬度: 33-58-15N, 经度: 080-59-40W, 海拔: 64米

当前天气观测

该预报发布于42分钟前的15:53 UTC
风速5节,风向多变
温度 12°C
湿度 47%
气压 1025 hPa
能見度: 16.1公里
天空无云

METAR: KCUB 211553Z AUTO VRB05KT 10SM CLR 12/01 A3028 RMK AO2 SLP253 T01170006

时间: 11:35 (16:35 UTC)

预报

该预报发布于1小时和43分钟前的14:52 UTC
预报有效从21日的 15点(UTC)到 22日的 12点(UTC)
风速5节,风向东转东北
能見度: 10公里
天空无云
从 21日的 2300点(UTC)
风速节,风向
能見度: 10公里
散云层高于25000英尺

TAF: KCUB 211452Z 2115/2212 06005KT P6SM SKC FM212300 00000KT P6SM SCT250

超过4000个机场的气象观测和天气预报(METAR&TAF报告)。

可查询的气象台以黄色和红色小点在地图上表示。

将鼠标移到小点上方,可查看气象台名称。

然后点击查看天气观测和预报。

如需切换地图:点击带黑十字的绿色按钮放大地图;点击带横线的绿色按钮缩小地图;或者点击绿色箭头查看邻近地区的地图。


METAR-TAF: